Carauari Airport


Codes: SWCA/CAF
Name: Carauari Airport
City: Carauari
Country: Brazil
Elevation: 355 ft.

Photos at Carauari Airport


   Photos courtesy of SpottingLog. You can add your own sightings and photos by signing up for a free trial today.



No photos found.

Weather at Carauari Airport


Time (UTC)DescriptionTempratureWindCloud coverageVisibilityPressureHumidity
16-Jun-2024 03:00Broken Clouds26°C2 mph, N71%10000m1011hPa68%
16-Jun-2024 06:00Broken Clouds25°C2 mph, NE65%10000m1011hPa74%
16-Jun-2024 09:00Broken Clouds23°C2 mph, NE52%10000m1011hPa85%
16-Jun-2024 12:00Scattered Clouds25°C2 mph, NE31%10000m1012hPa77%
16-Jun-2024 15:00Scattered Clouds33°C4 mph, NE49%10000m1012hPa45%
16-Jun-2024 18:00Scattered Clouds36°C7 mph, E41%10000m1009hPa34%
16-Jun-2024 21:00Broken Clouds32°C4 mph, NE78%10000m1008hPa50%
17-Jun-2024 00:00Overcast Clouds28°C2 mph, NE92%10000m1010hPa61%
17-Jun-2024 03:00Scattered Clouds25°C4 mph, NE32%10000m1011hPa76%
17-Jun-2024 06:00Broken Clouds24°C2 mph, NE69%10000m1010hPa84%
17-Jun-2024 09:00Scattered Clouds23°C2 mph, N49%10000m1010hPa89%
17-Jun-2024 12:00Few Clouds25°C2 mph, NE24%10000m1012hPa77%
17-Jun-2024 15:00Clear Sky33°C4 mph, NE0%10000m1011hPa47%
17-Jun-2024 18:00Clear Sky36°C2 mph, NE9%10000m1008hPa36%
17-Jun-2024 21:00Overcast Clouds31°C2 mph, SW95%10000m1006hPa57%
18-Jun-2024 00:00Overcast Clouds26°C2 mph, SE88%10000m1009hPa71%
18-Jun-2024 03:00Overcast Clouds26°C2 mph, NW89%10000m1010hPa73%
18-Jun-2024 06:00Broken Clouds24°C2 mph, SW77%10000m1009hPa81%
18-Jun-2024 09:00Scattered Clouds23°C2 mph, NW49%10000m1009hPa87%
18-Jun-2024 12:00Scattered Clouds26°C2 mph, NW36%10000m1010hPa78%
18-Jun-2024 15:00Clear Sky33°C2 mph, NW8%10000m1011hPa50%
18-Jun-2024 18:00Few Clouds35°C2 mph, NE20%10000m1007hPa40%
18-Jun-2024 21:00Overcast Clouds28°C2 mph, N100%10000m1006hPa67%
19-Jun-2024 00:00Light Rain25°C2 mph, N96%10000m1008hPa81%
19-Jun-2024 03:00Light Rain23°C2 mph, NE40%10000m1009hPa95%
19-Jun-2024 06:00Scattered Clouds23°C2 mph, NW50%10000m1009hPa96%
19-Jun-2024 09:00Scattered Clouds22°C2 mph, N45%10000m1009hPa97%
19-Jun-2024 12:00Scattered Clouds24°C2 mph, N48%10000m1011hPa89%
19-Jun-2024 15:00Overcast Clouds33°C2 mph, NE87%10000m1011hPa50%
19-Jun-2024 18:00Broken Clouds33°C2 mph, E84%10000m1008hPa48%
19-Jun-2024 21:00Overcast Clouds30°C0 mph, SW100%10000m1006hPa65%
20-Jun-2024 00:00Broken Clouds26°C2 mph, SE84%10000m1008hPa76%
20-Jun-2024 03:00Light Rain23°C2 mph, E18%10000m1010hPa91%
20-Jun-2024 06:00Light Rain23°C2 mph, E42%10000m1009hPa94%
20-Jun-2024 09:00Broken Clouds22°C2 mph, NE60%10000m1010hPa95%
20-Jun-2024 12:00Light Rain24°C2 mph, E42%10000m1011hPa87%
20-Jun-2024 15:00Scattered Clouds33°C4 mph, E31%10000m1011hPa49%
20-Jun-2024 18:00Scattered Clouds35°C4 mph, E30%10000m1008hPa39%
20-Jun-2024 21:00Broken Clouds30°C2 mph, E83%10000m1007hPa60%
21-Jun-2024 00:00Light Rain25°C2 mph, NE76%10000m1009hPa76%